Time;durP1;ratioP1;P1;durP2;ratioP2;P2;SDS_P1;SDS_P2;PMS_P1;PMS_P2;Temp;Humidity;BMP_temperature;BMP_pressure;BME280_temperature;BME280_humidity;BME280_pressure;Samples;Min_cycle;Max_cycle;Signal;HPM_P1;HPM_P2
2023/05/30 00:01:20;;;;;;;;;;;;;;;;;;;;;
2023/05/30 00:03:48;;;;;;;35.73;29.15;;;27.60;99.90;;;;;;1848400;76;21063;-86
2023/05/30 00:06:39;;;;;;;29.35;25.20;;;27.60;99.90;;;;;;1834590;77;21163;-86
2023/05/30 00:09:22;;;;;;;44.65;34.95;;;27.60;99.90;;;;;;1844422;77;21154;-87
2023/05/30 00:12:20;;;;;;;31.35;23.75;;;27.60;99.90;;;;;;1841786;75;21091;-85
2023/05/30 00:14:55;;;;;;;30.60;21.50;;;27.70;99.90;;;;;;1851630;77;21573;-85
2023/05/30 00:17:33;;;;;;;23.73;19.40;;;27.70;99.90;;;;;;1853951;77;21233;-87
2023/05/30 00:20:15;;;;;;;25.77;21.23;;;27.70;99.90;;;;;;1843763;77;21509;-86
2023/05/30 00:22:46;;;;;;;29.15;21.20;;;27.80;99.90;;;;;;1848123;77;21154;-87
2023/05/30 00:25:20;;;;;;;30.62;21.57;;;27.80;99.90;;;;;;1847023;77;21154;-86
2023/05/30 00:27:51;;;;;;;28.38;22.25;;;27.80;99.90;;;;;;1857476;77;21208;-87
2023/05/30 00:30:22;;;;;;;23.20;19.92;;;27.80;99.90;;;;;;1853161;77;21178;-85
2023/05/30 00:32:53;;;;;;;29.35;20.02;;;27.80;99.90;;;;;;1839074;77;21883;-86
2023/05/30 00:35:25;;;;;;;26.05;20.05;;;27.80;99.90;;;;;;1851059;77;21170;-87
2023/05/30 00:37:57;;;;;;;25.20;19.55;;;27.90;99.90;;;;;;1847726;77;21177;-87
2023/05/30 00:40:28;;;;;;;28.47;19.92;;;27.90;99.90;;;;;;1849898;77;21272;-88
2023/05/30 00:42:59;;;;;;;26.73;21.02;;;27.90;99.90;;;;;;1847304;77;21156;-88
2023/05/30 00:45:31;;;;;;;25.95;20.20;;;27.90;99.90;;;;;;1859725;75;21150;-87
2023/05/30 00:48:04;;;;;;;25.10;19.00;;;27.90;99.90;;;;;;1869156;76;21099;-88
2023/05/30 00:50:36;;;;;;;20.32;16.95;;;28.00;99.90;;;;;;1872535;76;21220;-87
2023/05/30 00:53:10;;;;;;;22.70;16.30;;;28.10;99.90;;;;;;1872631;76;21519;-88
2023/05/30 00:55:44;;;;;;;19.67;14.55;;;28.10;99.90;;;;;;1798863;76;21152;-86
2023/05/30 00:58:24;;;;;;;13.80;11.22;;;28.20;99.90;;;;;;1855776;76;21155;-77
2023/05/30 01:00:56;;;;;;;11.28;8.13;;;28.30;99.90;;;;;;1870162;76;21130;-80
2023/05/30 01:03:32;;;;;;;46.48;12.23;;;28.40;99.90;;;;;;1862219;76;21185;-79
2023/05/30 01:06:04;;;;;;;20.80;11.65;;;28.40;99.90;;;;;;1872858;74;21417;-78
2023/05/30 01:08:35;;;;;;;18.73;11.53;;;28.50;99.90;;;;;;1803248;77;21442;-75
2023/05/30 01:11:26;;;;;;;15.10;10.15;;;28.50;99.90;;;;;;1862184;75;21586;-79
2023/05/30 01:14:24;;;;;;;15.48;11.08;;;28.60;99.90;;;;;;1862844;76;21170;-79
2023/05/30 01:16:57;;;;;;;16.20;10.70;;;28.60;99.90;;;;;;1866545;76;21232;-77
2023/05/30 01:19:45;;;;;;;17.17;10.53;;;28.70;99.90;;;;;;1879859;76;21080;-75
2023/05/30 01:22:37;;;;;;;15.90;10.63;;;28.70;99.90;;;;;;1874942;76;21145;-79
2023/05/30 01:25:17;;;;;;;14.83;10.13;;;28.80;99.90;;;;;;1803384;77;21233;-78
2023/05/30 01:28:12;;;;;;;13.55;10.25;;;28.80;99.90;;;;;;1860019;75;21118;-81
2023/05/30 01:30:46;;;;;;;12.35;9.43;;;28.90;99.90;;;;;;1871047;76;21635;-76
2023/05/30 01:33:25;;;;;;;14.20;11.03;;;28.90;99.90;;;;;;1884149;76;21122;-75
2023/05/30 01:35:52;;;;;;;14.73;10.63;;;29.00;99.90;;;;;;1868572;76;21146;-76
2023/05/30 01:38:25;;;;;;;12.58;9.38;;;29.00;99.90;;;;;;1870962;76;21128;-73
2023/05/30 01:40:58;;;;;;;13.95;10.18;;;29.10;99.90;;;;;;1865036;76;21739;-76
2023/05/30 01:43:52;;;;;;;11.22;9.65;;;29.10;99.90;;;;;;1868844;76;21131;-77
2023/05/30 01:46:38;;;;;;;12.20;9.85;;;29.10;99.90;;;;;;1865973;75;21232;-80
2023/05/30 01:49:36;;;;;;;13.30;9.28;;;29.20;99.90;;;;;;1872264;75;21147;-78
2023/05/30 01:52:17;;;;;;;10.93;8.38;;;29.30;99.90;;;;;;1866368;75;21146;-79
2023/05/30 01:54:51;;;;;;;10.55;8.15;;;29.40;99.90;;;;;;1887240;74;21063;-80
2023/05/30 01:57:25;;;;;;;8.60;7.12;;;29.60;99.90;;;;;;1868047;74;21126;-77
2023/05/30 01:59:58;;;;;;;8.93;7.55;;;29.70;99.90;;;;;;1875879;74;21119;-77
2023/05/30 02:02:30;;;;;;;10.15;7.97;;;29.90;99.90;;;;;;1869610;75;21158;-79
2023/05/30 02:05:06;;;;;;;11.60;8.03;;;30.00;99.90;;;;;;1861747;75;21170;-76
2023/05/30 02:07:40;;;;;;;14.03;8.73;;;30.10;99.90;;;;;;1871279;74;21692;-79
2023/05/30 02:10:12;;;;;;;11.73;7.50;;;30.10;99.90;;;;;;1873125;76;21162;-76
2023/05/30 02:12:43;;;;;;;10.55;7.20;;;30.10;99.90;;;;;;1875901;75;21121;-75
2023/05/30 02:15:19;;;;;;;13.83;7.95;;;30.10;99.90;;;;;;1866401;75;21107;-75
2023/05/30 02:17:51;;;;;;;9.30;6.53;;;30.00;99.90;;;;;;1864811;75;21090;-79
2023/05/30 02:20:23;;;;;;;12.43;7.67;;;30.00;99.90;;;;;;1865776;75;21087;-78
2023/05/30 02:22:54;;;;;;;10.32;7.22;;;30.00;99.90;;;;;;1874796;75;21598;-75
2023/05/30 02:25:26;;;;;;;12.35;7.97;;;29.90;99.90;;;;;;1872413;74;21551;-80
2023/05/30 02:27:57;;;;;;;12.85;7.90;;;29.90;99.90;;;;;;1876275;75;21614;-79
2023/05/30 02:30:28;;;;;;;12.93;7.70;;;30.00;99.90;;;;;;1870776;75;21216;-77
2023/05/30 02:33:02;;;;;;;10.53;9.23;;;30.10;99.90;;;;;;1868118;74;21532;-78
2023/05/30 02:35:37;;;;;;;9.55;7.60;;;30.10;99.90;;;;;;1875585;74;21146;-78
2023/05/30 02:38:08;;;;;;;10.85;7.95;;;30.10;99.90;;;;;;1866540;74;21083;-78
2023/05/30 02:40:40;;;;;;;12.00;9.05;;;30.20;99.90;;;;;;1876080;74;21180;-79
2023/05/30 02:43:12;;;;;;;10.25;7.37;;;30.30;99.90;;;;;;1872396;74;21162;-79
2023/05/30 02:45:45;;;;;;;8.78;7.22;;;30.50;99.90;;;;;;1865796;76;21074;-79
2023/05/30 02:48:17;;;;;;;9.98;7.35;;;30.50;99.90;;;;;;1910130;74;21135;-80
2023/05/30 02:50:51;;;;;;;12.33;7.42;;;30.60;99.90;;;;;;1914311;73;21220;-78
2023/05/30 02:53:23;;;;;;;14.33;8.38;;;30.60;99.90;;;;;;1905440;74;21143;-75
2023/05/30 02:55:57;;;;;;;10.98;8.73;;;30.70;99.90;;;;;;1910733;74;21139;-79
2023/05/30 02:58:28;;;;;;;9.58;7.50;;;30.80;99.90;;;;;;1910822;73;21084;-77
2023/05/30 03:01:00;;;;;;;9.23;7.00;;;30.90;99.90;;;;;;1911648;74;21183;-80
2023/05/30 03:03:37;;;;;;;13.15;7.37;;;31.10;99.90;;;;;;1910490;74;21165;-80
2023/05/30 03:06:08;;;;;;;10.13;8.25;;;31.20;99.90;;;;;;1904522;74;21095;-79
2023/05/30 03:08:41;;;;;;;16.05;8.00;;;31.40;99.90;;;;;;1913424;73;21520;-79
2023/05/30 03:11:13;;;;;;;28.38;10.63;;;31.50;99.90;;;;;;1910052;74;21161;-78
2023/05/30 03:13:46;;;;;;;14.28;8.15;;;31.70;99.90;;;;;;1907923;74;21159;-78
2023/05/30 03:16:17;;;;;;;10.03;7.22;;;31.80;99.90;;;;;;1912449;74;21214;-79
2023/05/30 03:18:53;;;;;;;10.13;6.65;;;32.00;99.90;;;;;;1909690;74;21611;-79
2023/05/30 03:21:26;;;;;;;8.25;6.50;;;32.20;99.90;;;;;;1913571;74;21131;-80
2023/05/30 03:23:58;;;;;;;7.92;6.58;;;32.20;99.90;;;;;;1870112;76;21063;-79
2023/05/30 03:26:30;;;;;;;9.80;6.70;;;32.20;99.90;;;;;;1914476;74;21173;-77
2023/05/30 03:29:01;;;;;;;9.40;6.70;;;32.20;99.90;;;;;;1913009;73;21202;-76
2023/05/30 03:31:33;;;;;;;8.05;6.80;;;32.30;99.90;;;;;;1909430;74;21123;-77
2023/05/30 03:34:04;;;;;;;13.20;7.03;;;32.30;99.90;;;;;;1913450;74;21156;-78
2023/05/30 03:36:38;;;;;;;12.53;7.00;;;32.40;99.90;;;;;;1910458;74;21990;-77
2023/05/30 03:39:09;;;;;;;21.33;7.80;;;32.40;99.90;;;;;;1911894;74;21064;-76
2023/05/30 03:41:40;;;;;;;19.50;7.72;;;32.40;99.90;;;;;;1910574;73;21167;-77
2023/05/30 03:44:11;;;;;;;7.72;6.72;;;32.40;99.90;;;;;;1911751;74;21575;-76
2023/05/30 03:46:43;;;;;;;15.15;7.28;;;32.20;99.90;;;;;;1890162;74;21224;-75
2023/05/30 03:49:15;;;;;;;11.03;7.37;;;32.10;99.90;;;;;;1855316;75;21131;-77
2023/05/30 03:51:47;;;;;;;10.08;6.95;;;32.00;99.90;;;;;;1862916;74;21142;-75
2023/05/30 03:54:18;;;;;;;8.63;7.47;;;32.00;99.90;;;;;;1864312;76;21198;-75
2023/05/30 03:56:54;;;;;;;10.68;7.60;;;32.10;99.90;;;;;;1848623;76;21096;-77
2023/05/30 03:59:26;;;;;;;14.68;7.90;;;32.20;99.90;;;;;;1852667;76;21154;-76
2023/05/30 04:01:59;;;;;;;10.53;7.28;;;32.30;99.90;;;;;;1864880;76;21128;-77
2023/05/30 04:04:30;;;;;;;11.12;7.62;;;32.30;99.90;;;;;;1856908;76;21134;-79
2023/05/30 04:07:02;;;;;;;10.55;7.40;;;32.30;99.90;;;;;;1857430;75;21113;-74
2023/05/30 04:09:33;;;;;;;20.75;7.92;;;32.20;99.90;;;;;;1868805;76;21181;-74
2023/05/30 04:12:07;;;;;;;22.32;7.55;;;32.20;99.90;;;;;;1855690;74;21131;-78
2023/05/30 04:14:48;;;;;;;10.45;7.05;;;32.30;99.90;;;;;;1858890;75;21110;-75
2023/05/30 04:17:32;;;;;;;8.85;6.30;;;32.20;99.90;;;;;;1858429;75;21890;-76
2023/05/30 04:20:04;;;;;;;10.05;6.95;;;32.30;99.90;;;;;;1869121;76;21155;-74
2023/05/30 04:22:36;;;;;;;11.20;8.00;;;32.40;99.90;;;;;;1860254;76;21182;-78
2023/05/30 04:25:09;;;;;;;13.00;6.90;;;32.60;99.90;;;;;;1851001;76;21610;-77
2023/05/30 04:27:41;;;;;;;7.60;6.40;;;32.70;99.90;;;;;;1859021;76;21210;-77
2023/05/30 04:30:14;;;;;;;9.63;6.90;;;32.70;99.90;;;;;;1861475;74;21237;-76
2023/05/30 04:32:50;;;;;;;8.65;6.25;;;32.60;99.90;;;;;;1858458;75;21116;-77
2023/05/30 04:35:27;;;;;;;23.02;7.87;;;32.60;99.90;;;;;;1871122;74;21201;-78
2023/05/30 04:38:02;;;;;;;8.53;6.92;;;32.80;99.90;;;;;;1857463;74;21170;-79
2023/05/30 04:40:36;;;;;;;12.73;6.80;;;32.80;99.90;;;;;;1862427;74;21154;-82
2023/05/30 04:43:11;;;;;;;9.53;6.00;;;32.80;99.90;;;;;;1861458;76;21591;-82
2023/05/30 04:45:44;;;;;;;8.85;6.80;;;32.70;99.90;;;;;;1858538;75;21192;-81
2023/05/30 04:48:24;;;;;;;7.75;6.05;;;32.60;99.90;;;;;;1865391;74;21199;-79
2023/05/30 04:50:58;;;;;;;6.60;5.97;;;32.50;99.90;;;;;;1872155;74;21217;-79
2023/05/30 04:53:30;;;;;;;6.62;5.90;;;32.40;99.90;;;;;;1859884;75;21136;-80
2023/05/30 04:56:01;;;;;;;6.87;5.17;;;32.50;99.90;;;;;;1868828;74;21162;-77
2023/05/30 04:58:33;;;;;;;9.15;5.47;;;32.70;99.90;;;;;;1858154;76;21162;-78
2023/05/30 05:01:10;;;;;;;6.87;5.67;;;32.80;99.90;;;;;;1858819;76;21158;-79
2023/05/30 05:03:41;;;;;;;10.78;6.40;;;32.90;99.90;;;;;;1858957;76;21137;-79
2023/05/30 05:06:17;;;;;;;13.85;5.70;;;33.00;99.90;;;;;;1858659;76;21110;-82
2023/05/30 05:08:49;;;;;;;6.60;5.03;;;33.00;99.90;;;;;;1859496;74;21197;-87
2023/05/30 05:11:22;;;;;;;6.92;5.42;;;33.00;99.80;;;;;;1859422;76;21068;-81
2023/05/30 05:13:53;;;;;;;7.53;5.35;;;33.10;99.90;;;;;;1846980;77;21136;-79
2023/05/30 05:16:25;;;;;;;6.58;5.47;;;33.20;99.60;;;;;;1870369;74;21118;-83
2023/05/30 05:18:56;;;;;;;8.15;5.35;;;33.30;99.90;;;;;;1859907;76;21378;-80
2023/05/30 05:21:31;;;;;;;8.43;5.90;;;33.40;99.90;;;;;;1827611;78;21204;-79
2023/05/30 05:24:04;;;;;;;5.85;5.10;;;33.60;99.90;;;;;;1851697;75;21175;-80
2023/05/30 05:26:37;;;;;;;8.60;4.95;;;33.90;99.90;;;;;;1854825;77;21231;-83
2023/05/30 05:29:09;;;;;;;6.72;4.97;;;33.80;99.90;;;;;;1850311;77;21860;-80
2023/05/30 05:31:40;;;;;;;8.88;5.53;;;33.90;99.90;;;;;;1873175;76;21134;-78
2023/05/30 05:34:12;;;;;;;8.08;5.80;;;33.80;99.90;;;;;;1861626;74;21221;-76
2023/05/30 05:36:43;;;;;;;6.22;4.70;;;33.60;99.90;;;;;;1862587;76;21199;-79
2023/05/30 05:39:15;;;;;;;12.35;8.88;;;33.50;99.90;;;;;;1864085;74;21217;-78
2023/05/30 05:41:46;;;;;;;10.50;6.78;;;33.40;99.90;;;;;;1859247;76;21115;-79
2023/05/30 05:44:17;;;;;;;6.35;5.25;;;33.20;99.90;;;;;;1857020;76;21133;-81
2023/05/30 05:46:49;;;;;;;7.53;5.00;;;33.20;99.90;;;;;;1874765;75;22324;-80
2023/05/30 05:49:21;;;;;;;6.03;4.47;;;33.10;99.90;;;;;;1861517;76;21150;-80
2023/05/30 05:51:53;;;;;;;9.23;4.97;;;33.20;99.90;;;;;;1865804;76;21126;-78
2023/05/30 05:54:25;;;;;;;7.97;5.97;;;33.30;99.90;;;;;;1870577;76;21103;-78
2023/05/30 05:57:00;;;;;;;8.53;6.20;;;33.00;99.90;;;;;;1871118;76;21130;-81
2023/05/30 05:59:32;;;;;;;7.87;5.08;;;33.20;99.90;;;;;;1869318;76;21195;-80
2023/05/30 06:02:06;;;;;;;7.22;5.05;;;33.10;99.90;;;;;;1798880;78;21643;-82
2023/05/30 06:04:40;;;;;;;6.60;4.87;;;33.40;99.90;;;;;;1863033;76;21862;-78
2023/05/30 06:07:16;;;;;;;6.62;5.58;;;33.40;99.90;;;;;;1867088;76;21167;-78
2023/05/30 06:09:44;;;;;;;6.37;5.00;;;33.40;99.90;;;;;;1879960;76;21223;-79
2023/05/30 06:12:15;;;;;;;7.80;4.83;;;33.50;99.90;;;;;;1861298;76;21139;-79
2023/05/30 06:14:47;;;;;;;7.00;4.42;;;33.50;99.90;;;;;;1868947;76;21185;-76
2023/05/30 06:17:20;;;;;;;5.30;4.22;;;33.60;99.90;;;;;;1813867;77;21211;-79
2023/05/30 06:19:55;;;;;;;4.97;4.17;;;33.50;99.90;;;;;;1846232;76;21094;-78
2023/05/30 06:22:26;;;;;;;6.53;4.00;;;33.60;99.90;;;;;;1796754;79;21133;-80
2023/05/30 06:24:57;;;;;;;7.65;3.47;;;33.60;99.90;;;;;;1848927;76;21228;-78
2023/05/30 06:27:29;;;;;;;5.65;4.05;;;33.70;99.90;;;;;;1812307;79;21219;-78
2023/05/30 06:30:00;;;;;;;7.08;3.60;;;33.80;99.90;;;;;;1849953;76;21125;-79
2023/05/30 06:32:32;;;;;;;5.58;3.72;;;33.70;99.90;;;;;;1857457;76;21313;-81
2023/05/30 06:35:03;;;;;;;5.20;3.80;;;33.80;99.90;;;;;;1856865;76;21160;-79
2023/05/30 06:37:35;;;;;;;5.22;3.62;;;33.90;99.90;;;;;;1869753;76;21119;-81
2023/05/30 06:40:10;;;;;;;6.10;4.05;;;33.80;99.90;;;;;;1880106;76;21156;-79
2023/05/30 06:42:41;;;;;;;5.33;3.60;;;33.90;99.90;;;;;;1856587;77;21126;-79
2023/05/30 06:45:13;;;;;;;7.37;4.12;;;33.80;99.90;;;;;;1855579;76;21162;-79
2023/05/30 06:47:46;;;;;;;4.08;3.20;;;33.80;99.90;;;;;;1864752;76;21156;-78
2023/05/30 06:50:18;;;;;;;4.37;3.70;;;33.80;99.90;;;;;;1881861;76;21206;-78
2023/05/30 06:52:49;;;;;;;7.15;3.67;;;33.80;99.90;;;;;;1845337;78;21224;-76
2023/05/30 06:55:21;;;;;;;7.58;3.52;;;33.70;99.90;;;;;;1849241;74;21187;-78
2023/05/30 06:57:57;;;;;;;6.95;4.30;;;33.80;99.90;;;;;;1860909;75;21197;-77
2023/05/30 07:00:29;;;;;;;3.95;3.45;;;33.80;99.90;;;;;;1850212;76;21286;-77
2023/05/30 07:03:03;;;;;;;7.65;4.00;;;33.70;99.90;;;;;;1853737;77;21237;-76
2023/05/30 07:05:35;;;;;;;5.67;3.80;;;33.70;99.90;;;;;;1870704;76;21266;-77
2023/05/30 07:08:11;;;;;;;4.78;3.62;;;33.80;99.90;;;;;;1859168;76;21033;-78
2023/05/30 07:10:39;;;;;;;5.45;3.50;;;33.90;99.90;;;;;;1862016;74;21143;-77
2023/05/30 07:13:10;;;;;;;5.92;3.70;;;33.80;99.90;;;;;;1859859;76;21252;-79
2023/05/30 07:15:42;;;;;;;6.90;3.47;;;34.00;99.90;;;;;;1863860;74;21076;-80
2023/05/30 07:18:17;;;;;;;6.95;3.75;;;34.00;99.90;;;;;;1860407;74;21158;-76
2023/05/30 07:20:48;;;;;;;6.20;3.37;;;34.00;99.90;;;;;;1854506;74;21127;-76
2023/05/30 07:23:20;;;;;;;6.65;3.72;;;34.20;99.90;;;;;;1857912;76;21623;-77
2023/05/30 07:25:51;;;;;;;5.70;3.50;;;34.00;99.90;;;;;;1855359;76;21151;-76
2023/05/30 07:28:23;;;;;;;7.33;3.85;;;34.10;99.90;;;;;;1856862;76;21151;-77
2023/05/30 07:30:54;;;;;;;4.87;3.33;;;34.10;99.90;;;;;;1861346;74;21083;-77
2023/05/30 07:33:30;;;;;;;5.97;3.95;;;34.20;99.90;;;;;;1859366;76;21099;-79
2023/05/30 07:36:02;;;;;;;5.45;3.77;;;34.10;99.90;;;;;;1861246;76;21143;-75
2023/05/30 07:38:33;;;;;;;5.85;3.40;;;34.10;99.90;;;;;;1860481;75;21551;-77
2023/05/30 07:41:08;;;;;;;4.58;3.22;;;34.10;99.90;;;;;;1871199;74;21119;-77
2023/05/30 07:43:44;;;;;;;6.28;3.52;;;34.20;99.90;;;;;;1861193;75;21122;-77
2023/05/30 07:46:16;;;;;;;6.72;3.83;;;34.10;99.90;;;;;;1858081;74;21531;-77
2023/05/30 07:48:47;;;;;;;6.72;3.83;;;34.10;99.90;;;;;;1858084;76;21556;-78
2023/05/30 07:51:20;;;;;;;8.43;3.98;;;34.10;99.90;;;;;;1866043;76;21138;-80
2023/05/30 07:53:52;;;;;;;5.83;3.70;;;34.10;99.90;;;;;;1825937;78;21205;-77
2023/05/30 07:56:26;;;;;;;5.53;3.52;;;34.10;99.90;;;;;;1859322;76;21142;-78
2023/05/30 07:58:57;;;;;;;4.40;3.00;;;34.10;99.90;;;;;;1867024;76;21133;-78
2023/05/30 08:01:29;;;;;;;6.42;3.35;;;34.20;99.90;;;;;;1872461;76;21122;-76
2023/05/30 08:04:00;;;;;;;6.67;4.10;;;34.10;99.90;;;;;;1870927;76;21095;-77
2023/05/30 08:06:33;;;;;;;6.92;3.58;;;34.00;99.90;;;;;;1872385;76;21220;-77
2023/05/30 08:09:07;;;;;;;4.42;3.65;;;34.00;99.90;;;;;;1824398;77;21120;-76
2023/05/30 08:11:39;;;;;;;4.72;3.50;;;34.00;99.90;;;;;;1859892;76;21241;-76
2023/05/30 08:14:16;;;;;;;4.92;3.52;;;34.00;99.90;;;;;;1870749;76;21150;-76
2023/05/30 08:16:47;;;;;;;5.65;4.47;;;34.10;99.90;;;;;;1870661;76;21146;-76
2023/05/30 08:19:22;;;;;;;5.75;4.05;;;34.00;99.90;;;;;;1874363;76;21087;-78
2023/05/30 08:21:53;;;;;;;10.63;5.33;;;34.10;99.90;;;;;;1869958;76;21535;-78
2023/05/30 08:24:28;;;;;;;5.90;3.90;;;34.20;99.90;;;;;;1878726;76;21512;-76
2023/05/30 08:27:00;;;;;;;5.80;3.75;;;34.30;99.90;;;;;;1868901;76;21248;-76
2023/05/30 08:29:31;;;;;;;6.17;3.70;;;34.20;99.90;;;;;;1872949;76;21590;-75
2023/05/30 08:32:04;;;;;;;5.90;3.58;;;34.20;99.90;;;;;;1872155;76;21121;-76
2023/05/30 08:34:43;;;;;;;5.80;3.80;;;34.00;99.90;;;;;;1862566;76;21183;-77
2023/05/30 08:37:24;;;;;;;6.75;3.92;;;34.00;99.90;;;;;;1870043;76;21071;-78
2023/05/30 08:39:58;;;;;;;5.45;3.85;;;34.00;99.90;;;;;;1865676;76;21111;-75
2023/05/30 08:42:30;;;;;;;6.00;4.05;;;34.00;99.90;;;;;;1871767;75;21141;-76
2023/05/30 08:45:01;;;;;;;5.22;4.12;;;33.80;99.90;;;;;;1872146;76;21127;-79
2023/05/30 08:47:36;;;;;;;8.23;3.70;;;33.60;99.90;;;;;;1864546;76;21622;-79
2023/05/30 08:50:09;;;;;;;5.90;3.90;;;33.70;99.90;;;;;;1868905;75;21075;-76
2023/05/30 08:52:42;;;;;;;5.25;3.50;;;33.50;93.10;;;;;;1867419;74;21571;-76
2023/05/30 08:55:16;;;;;;;5.72;3.58;;;33.50;93.30;;;;;;1850836;76;21138;-75
2023/05/30 08:58:04;;;;;;;6.80;4.12;;;33.50;94.10;;;;;;1861200;76;21100;-74
2023/05/30 09:00:38;;;;;;;5.65;3.90;;;33.50;93.90;;;;;;1854430;76;21143;-84
2023/05/30 09:03:25;;;;;;;6.78;4.03;;;33.50;92.60;;;;;;1847828;76;21642;-84
2023/05/30 09:05:53;;;;;;;5.53;4.05;;;33.60;92.90;;;;;;1811725;78;21113;-84
2023/05/30 09:08:29;;;;;;;7.28;6.12;;;33.50;93.30;;;;;;1849564;77;21745;-83
2023/05/30 09:11:03;;;;;;;4.80;3.77;;;33.50;92.40;;;;;;1863898;76;21135;-83
2023/05/30 09:13:35;;;;;;;6.83;4.12;;;33.50;92.90;;;;;;1872095;76;21648;-84
2023/05/30 09:16:09;;;;;;;8.00;4.90;;;33.50;93.20;;;;;;1875620;76;21076;-82
2023/05/30 09:18:41;;;;;;;7.30;3.98;;;33.50;93.60;;;;;;1863049;76;21658;-84
2023/05/30 09:21:13;;;;;;;6.42;4.78;;;33.50;93.50;;;;;;1849850;76;21147;-82
2023/05/30 09:23:46;;;;;;;5.95;3.95;;;33.50;93.70;;;;;;1851827;76;21111;-83
2023/05/30 09:26:18;;;;;;;8.13;5.00;;;33.50;93.50;;;;;;1819051;78;21199;-83
2023/05/30 09:28:50;;;;;;;5.72;3.92;;;33.50;93.70;;;;;;1858194;77;21100;-83
2023/05/30 09:31:22;;;;;;;6.90;4.42;;;33.50;93.70;;;;;;1880612;76;21138;-82
2023/05/30 09:33:54;;;;;;;6.75;3.92;;;33.50;93.60;;;;;;1866089;76;21186;-83
2023/05/30 09:36:31;;;;;;;5.05;3.85;;;33.50;93.60;;;;;;1852603;76;21119;-83
2023/05/30 09:39:01;;;;;;;6.12;3.98;;;33.50;94.00;;;;;;1848457;76;21145;-82
2023/05/30 09:41:34;;;;;;;5.72;4.15;;;33.40;94.10;;;;;;1859140;76;21127;-82
2023/05/30 09:44:07;;;;;;;11.30;4.12;;;33.40;93.30;;;;;;1860249;76;21088;-82
2023/05/30 09:46:41;;;;;;;6.67;4.33;;;33.30;93.00;;;;;;1855483;76;21233;-80
2023/05/30 09:49:13;;;;;;;5.67;4.45;;;33.30;93.10;;;;;;1876706;76;21623;-82
2023/05/30 09:51:44;;;;;;;8.03;4.30;;;33.30;93.20;;;;;;1886939;74;21228;-84
2023/05/30 09:54:21;;;;;;;5.05;4.22;;;33.30;93.30;;;;;;1916316;74;21205;-82
2023/05/30 09:56:54;;;;;;;7.10;4.20;;;33.30;93.40;;;;;;1927388;74;21064;-82
2023/05/30 09:59:26;;;;;;;6.15;3.75;;;33.30;93.70;;;;;;1910952;74;21209;-83
2023/05/30 10:02:01;;;;;;;8.20;5.03;;;33.30;93.50;;;;;;1910383;74;21169;-85
2023/05/30 10:04:32;;;;;;;7.85;4.28;;;33.30;93.20;;;;;;1905322;74;21244;-83
2023/05/30 10:07:05;;;;;;;5.50;3.75;;;33.30;93.40;;;;;;1917174;74;21112;-85
2023/05/30 10:09:42;;;;;;;5.45;3.87;;;33.20;93.40;;;;;;1910164;74;21419;-82
2023/05/30 10:12:13;;;;;;;5.95;3.90;;;33.20;93.20;;;;;;1916303;74;21598;-83
2023/05/30 10:14:45;;;;;;;5.90;4.03;;;33.10;93.30;;;;;;1923501;74;21140;-82
2023/05/30 10:17:18;;;;;;;6.53;4.00;;;33.10;93.30;;;;;;1922823;73;21095;-82
2023/05/30 10:20:08;;;;;;;5.12;3.67;;;33.10;92.70;;;;;;1908647;73;21675;-82
2023/05/30 10:22:41;;;;;;;7.30;4.87;;;33.10;93.40;;;;;;1907878;74;21072;-83
2023/05/30 10:25:23;;;;;;;4.23;3.73;;;33.10;93.40;;;;;;1924605;74;21230;-82
2023/05/30 10:28:02;;;;;;;8.75;5.00;;;33.00;93.70;;;;;;1911945;74;21805;-83
2023/05/30 10:30:34;;;;;;;5.95;3.83;;;33.00;93.40;;;;;;1910942;74;22082;-83
2023/05/30 10:33:10;;;;;;;6.10;4.20;;;33.00;93.00;;;;;;1917239;74;21560;-82
2023/05/30 10:35:42;;;;;;;;;;;33.00;93.20;;;;;;1920044;74;21176;-81
2023/05/30 10:38:15;;;;;;;6.33;4.58;;;33.00;94.30;;;;;;1909450;74;20210;-82
2023/05/30 10:41:00;;;;;;;9.90;4.90;;;33.00;93.50;;;;;;1910570;74;21138;-82
2023/05/30 10:43:55;;;;;;;7.87;4.85;;;33.00;93.40;;;;;;1916824;74;21143;-83
2023/05/30 10:46:46;;;;;;;6.00;4.10;;;32.90;93.10;;;;;;1807392;74;21178;-81
2023/05/30 10:49:22;;;;;;;7.15;5.35;;;33.00;93.70;;;;;;1910884;74;21198;-85
2023/05/30 10:52:04;;;;;;;6.45;4.47;;;33.00;93.20;;;;;;1890455;74;21102;-83
2023/05/30 10:54:41;;;;;;;5.92;4.37;;;33.00;93.80;;;;;;1858301;76;21146;-83
2023/05/30 10:57:31;;;;;;;6.50;4.92;;;32.90;93.80;;;;;;1858630;74;21807;-83
2023/05/30 11:00:09;;;;;;;11.60;4.78;;;32.90;93.70;;;;;;1858665;76;21135;-82
2023/05/30 11:02:40;;;;;;;6.45;4.53;;;32.90;93.40;;;;;;1859606;74;21130;-83
2023/05/30 11:05:16;;;;;;;;;;;32.90;93.70;;;;;;1862561;76;21139;-83
2023/05/30 11:07:47;;;;;;;11.03;4.90;;;32.90;93.60;;;;;;1856447;76;20222;-83
2023/05/30 11:10:21;;;;;;;6.70;4.40;;;32.90;93.90;;;;;;1858960;76;21099;-84
2023/05/30 11:12:55;;;;;;;6.78;4.33;;;32.90;94.50;;;;;;1855535;75;21213;-82
2023/05/30 11:15:35;;;;;;;8.05;5.45;;;32.80;94.40;;;;;;1857613;76;21604;-77
2023/05/30 11:18:18;;;;;;;;;;;32.80;94.40;;;;;;1868817;74;21656;-75
2023/05/30 11:20:56;;;;;;;5.97;4.62;;;32.80;94.70;;;;;;1855638;76;20167;-77
2023/05/30 11:23:31;;;;;;;9.90;5.00;;;32.90;94.70;;;;;;1872294;74;21166;-75
2023/05/30 11:26:03;;;;;;;8.40;4.97;;;32.80;95.00;;;;;;1855865;74;21135;-77
2023/05/30 11:28:37;;;;;;;8.75;5.12;;;32.80;95.00;;;;;;1807473;78;21163;-76
2023/05/30 11:31:16;;;;;;;;;;;32.80;95.20;;;;;;1882511;74;21068;-78
2023/05/30 11:33:52;;;;;;;11.40;5.58;;;32.80;95.60;;;;;;1867535;76;20242;-77
2023/05/30 11:36:24;;;;;;;9.68;5.08;;;32.70;95.40;;;;;;1858830;76;21138;-77
2023/05/30 11:38:59;;;;;;;9.38;4.50;;;32.70;95.60;;;;;;1800416;79;21148;-77
2023/05/30 11:41:30;;;;;;;9.00;5.20;;;32.70;95.80;;;;;;1880992;76;21146;-77
2023/05/30 11:44:03;;;;;;;8.93;5.42;;;32.60;96.00;;;;;;1861222;74;21092;-78
2023/05/30 11:46:35;;;;;;;9.90;5.65;;;32.60;96.10;;;;;;1857274;76;21186;-79
2023/05/30 11:49:07;;;;;;;13.28;6.60;;;32.60;96.20;;;;;;1853906;76;21142;-79
2023/05/30 11:51:42;;;;;;;7.72;5.60;;;32.60;96.30;;;;;;1855574;76;21127;-79
2023/05/30 11:54:14;;;;;;;13.13;6.78;;;32.50;96.40;;;;;;1876335;76;21178;-77
2023/05/30 11:56:47;;;;;;;14.33;6.97;;;32.50;96.50;;;;;;1866227;76;21150;-77
2023/05/30 11:59:24;;;;;;;9.80;6.58;;;32.50;96.60;;;;;;1876269;76;21114;-77
2023/05/30 12:01:55;;;;;;;14.63;6.95;;;32.50;96.70;;;;;;1872782;76;21594;-77
2023/05/30 12:04:29;;;;;;;10.03;5.75;;;32.50;96.70;;;;;;1869146;76;21127;-78
2023/05/30 12:07:02;;;;;;;11.90;6.00;;;32.50;96.90;;;;;;1873330;76;21107;-78
2023/05/30 12:09:39;;;;;;;9.83;5.97;;;32.40;96.90;;;;;;1871292;76;21114;-77
2023/05/30 12:12:11;;;;;;;9.10;6.00;;;32.40;97.00;;;;;;1873907;76;21177;-77
2023/05/30 12:14:44;;;;;;;11.63;6.25;;;32.40;97.10;;;;;;1878445;75;21190;-77
2023/05/30 12:17:21;;;;;;;14.53;7.28;;;32.40;97.00;;;;;;1867054;76;21109;-77
2023/05/30 12:20:09;;;;;;;15.23;7.03;;;32.40;97.30;;;;;;1872308;76;21574;-76
2023/05/30 12:22:46;;;;;;;10.18;6.87;;;32.40;97.70;;;;;;1858685;76;21814;-77
2023/05/30 12:25:19;;;;;;;8.15;6.78;;;32.30;97.90;;;;;;1858892;76;21083;-77
2023/05/30 12:27:53;;;;;;;12.73;6.42;;;32.30;98.30;;;;;;1858770;76;21692;-77
2023/05/30 12:30:28;;;;;;;9.40;5.92;;;32.30;98.50;;;;;;1860427;76;21154;-77
2023/05/30 12:32:59;;;;;;;10.35;5.60;;;32.20;98.50;;;;;;1876021;76;21078;-76
2023/05/30 12:35:49;;;;;;;;;;;;;;;;;;;;;
2023/05/30 12:38:52;;;;;;;9.20;5.70;;;32.00;98.70;;;;;;1863514;76;21547;-84
2023/05/30 12:41:30;;;;;;;6.17;5.28;;;31.90;98.90;;;;;;1859289;76;21119;-84
2023/05/30 12:44:02;;;;;;;7.60;5.10;;;31.80;98.80;;;;;;1864089;76;21586;-83
2023/05/30 12:46:36;;;;;;;7.42;4.45;;;31.70;98.50;;;;;;1866378;76;21107;-84
2023/05/30 12:49:08;;;;;;;7.25;4.55;;;31.70;98.60;;;;;;1819099;78;21139;-84
2023/05/30 12:51:40;;;;;;;10.20;4.67;;;31.60;98.70;;;;;;1848353;76;21174;-86
2023/05/30 12:57:08;;;;;;;7.10;4.90;;;31.50;98.60;;;;;;1756272;78;21714;-84
2023/05/30 12:59:54;;;;;;;6.35;4.62;;;31.50;98.20;;;;;;1742752;78;21239;-85
2023/05/30 13:03:05;;;;;;;;;;;;;;;;;;;;;
2023/05/30 13:05:18;;;;;;;5.83;3.90;;;31.40;97.90;;;;;;1818515;76;21161;-85
2023/05/30 13:07:50;;;;;;;7.78;3.70;;;31.40;97.90;;;;;;1793244;79;21135;-85
2023/05/30 13:10:23;;;;;;;5.92;4.00;;;31.40;97.70;;;;;;1858286;76;21463;-84
2023/05/30 13:12:54;;;;;;;6.62;4.42;;;31.40;97.80;;;;;;1804162;78;21277;-84
2023/05/30 13:15:42;;;;;;;;;;;;;;;;;;;;;
2023/05/30 13:18:32;;;;;;;8.88;4.75;;;31.30;97.90;;;;;;1779755;76;21618;-85
2023/05/30 13:21:03;;;;;;;5.80;4.40;;;31.30;98.00;;;;;;1868825;76;21183;-85
2023/05/30 13:23:56;;;;;;;6.67;4.17;;;31.40;98.00;;;;;;1856195;76;21240;-84
2023/05/30 13:26:39;;;;;;;12.43;4.50;;;31.30;98.30;;;;;;1865127;75;21393;-84
2023/05/30 13:29:17;;;;;;;10.53;4.60;;;31.30;97.90;;;;;;1869372;76;21165;-85